sensor_id;sensor_type;location;lat;lon;timestamp;pressure;altitude;pressure_sealevel;temperature;humidity
4346;BME280;2186;49.866;7.986;2022-11-15T00:00:54;99914.97;;;8.76;100.00
4346;BME280;2186;49.866;7.986;2022-11-15T00:03:24;99910.72;;;8.70;100.00
4346;BME280;2186;49.866;7.986;2022-11-15T00:05:50;99904.56;;;8.70;100.00
4346;BME280;2186;49.866;7.986;2022-11-15T00:08:17;99908.91;;;8.72;100.00
4346;BME280;2186;49.866;7.986;2022-11-15T00:10:54;99908.13;;;8.69;100.00
4346;BME280;2186;49.866;7.986;2022-11-15T00:13:21;99904.38;;;8.76;100.00
4346;BME280;2186;49.866;7.986;2022-11-15T00:15:47;99905.06;;;8.84;100.00
4346;BME280;2186;49.866;7.986;2022-11-15T00:18:14;99898.16;;;8.78;100.00
4346;BME280;2186;49.866;7.986;2022-11-15T00:20:41;99891.56;;;8.93;100.00
4346;BME280;2186;49.866;7.986;2022-11-15T00:23:09;99893.91;;;9.02;100.00
4346;BME280;2186;49.866;7.986;2022-11-15T00:25:35;99896.63;;;9.01;100.00
4346;BME280;2186;49.866;7.986;2022-11-15T00:28:02;99892.09;;;9.04;100.00
4346;BME280;2186;49.866;7.986;2022-11-15T00:30:43;99883.88;;;9.13;100.00
4346;BME280;2186;49.866;7.986;2022-11-15T00:33:09;99879.59;;;9.09;100.00
4346;BME280;2186;49.866;7.986;2022-11-15T00:35:36;99891.03;;;9.11;100.00
4346;BME280;2186;49.866;7.986;2022-11-15T00:38:02;99889.59;;;9.00;100.00
4346;BME280;2186;49.866;7.986;2022-11-15T00:40:29;99888.72;;;8.99;100.00
4346;BME280;2186;49.866;7.986;2022-11-15T00:42:56;99888.81;;;8.96;100.00
4346;BME280;2186;49.866;7.986;2022-11-15T00:45:23;99897.84;;;8.89;100.00
4346;BME280;2186;49.866;7.986;2022-11-15T00:47:49;99893.53;;;8.85;100.00
4346;BME280;2186;49.866;7.986;2022-11-15T00:50:16;99897.28;;;8.78;100.00
4346;BME280;2186;49.866;7.986;2022-11-15T00:52:43;99899.88;;;8.79;100.00
4346;BME280;2186;49.866;7.986;2022-11-15T00:55:16;99897.28;;;8.78;100.00
4346;BME280;2186;49.866;7.986;2022-11-15T00:57:44;99904.28;;;8.80;100.00
4346;BME280;2186;49.866;7.986;2022-11-15T01:00:11;99892.81;;;8.80;100.00
4346;BME280;2186;49.866;7.986;2022-11-15T01:02:37;99887.56;;;8.78;100.00
4346;BME280;2186;49.866;7.986;2022-11-15T01:05:04;99885.72;;;8.80;100.00
4346;BME280;2186;49.866;7.986;2022-11-15T01:07:31;99881.53;;;8.72;100.00
4346;BME280;2186;49.866;7.986;2022-11-15T01:09:57;99880.31;;;8.52;100.00
4346;BME280;2186;49.866;7.986;2022-11-15T01:12:24;99879.53;;;8.47;100.00
4346;BME280;2186;49.866;7.986;2022-11-15T01:14:50;99873.44;;;8.45;100.00
4346;BME280;2186;49.866;7.986;2022-11-15T01:17:16;99880.00;;;8.63;100.00
4346;BME280;2186;49.866;7.986;2022-11-15T01:19:43;99866.50;;;8.72;100.00
4346;BME280;2186;49.866;7.986;2022-11-15T01:22:09;99868.16;;;8.76;100.00
4346;BME280;2186;49.866;7.986;2022-11-15T01:24:36;99874.16;;;8.83;100.00
4346;BME280;2186;49.866;7.986;2022-11-15T01:27:02;99868.09;;;8.79;100.00
4346;BME280;2186;49.866;7.986;2022-11-15T01:29:28;99865.31;;;8.84;100.00
4346;BME280;2186;49.866;7.986;2022-11-15T01:31:55;99860.88;;;8.84;100.00
4346;BME280;2186;49.866;7.986;2022-11-15T01:34:21;99856.47;;;8.83;100.00
4346;BME280;2186;49.866;7.986;2022-11-15T01:36:47;99855.78;;;9.08;100.00
4346;BME280;2186;49.866;7.986;2022-11-15T01:39:14;99857.06;;;8.95;100.00
4346;BME280;2186;49.866;7.986;2022-11-15T01:41:41;99862.16;;;9.01;100.00
4346;BME280;2186;49.866;7.986;2022-11-15T01:44:48;99860.56;;;9.25;100.00
4346;BME280;2186;49.866;7.986;2022-11-15T01:47:19;99851.97;;;9.16;100.00
4346;BME280;2186;49.866;7.986;2022-11-15T01:49:52;99849.78;;;9.59;100.00
4346;BME280;2186;49.866;7.986;2022-11-15T01:52:22;99853.53;;;9.24;100.00
4346;BME280;2186;49.866;7.986;2022-11-15T01:54:55;99850.63;;;9.31;100.00
4346;BME280;2186;49.866;7.986;2022-11-15T01:57:22;99848.34;;;9.20;100.00
4346;BME280;2186;49.866;7.986;2022-11-15T01:59:49;99849.50;;;9.10;100.00
4346;BME280;2186;49.866;7.986;2022-11-15T02:02:15;99848.38;;;9.19;100.00
4346;BME280;2186;49.866;7.986;2022-11-15T02:04:45;99840.59;;;9.13;100.00
4346;BME280;2186;49.866;7.986;2022-11-15T02:07:15;99839.06;;;9.06;100.00
4346;BME280;2186;49.866;7.986;2022-11-15T02:09:43;99831.97;;;9.06;100.00
4346;BME280;2186;49.866;7.986;2022-11-15T02:12:11;99837.22;;;9.08;100.00
4346;BME280;2186;49.866;7.986;2022-11-15T02:14:40;99833.78;;;9.04;100.00
4346;BME280;2186;49.866;7.986;2022-11-15T02:22:38;99827.13;;;8.91;100.00
4346;BME280;2186;49.866;7.986;2022-11-15T02:27:51;99816.41;;;8.63;100.00
4346;BME280;2186;49.866;7.986;2022-11-15T02:30:23;99817.94;;;8.72;100.00
4346;BME280;2186;49.866;7.986;2022-11-15T02:32:58;99809.03;;;8.74;100.00
4346;BME280;2186;49.866;7.986;2022-11-15T02:40:53;99801.97;;;8.75;100.00
4346;BME280;2186;49.866;7.986;2022-11-15T02:43:54;99790.59;;;8.71;100.00
4346;BME280;2186;49.866;7.986;2022-11-15T02:46:38;99789.81;;;8.68;100.00
4346;BME280;2186;49.866;7.986;2022-11-15T02:49:28;99781.09;;;8.64;100.00
4346;BME280;2186;49.866;7.986;2022-11-15T02:51:55;99784.69;;;8.61;100.00
4346;BME280;2186;49.866;7.986;2022-11-15T02:54:25;99785.34;;;8.70;100.00
4346;BME280;2186;49.866;7.986;2022-11-15T02:56:57;99784.69;;;8.61;100.00
4346;BME280;2186;49.866;7.986;2022-11-15T02:59:43;99785.78;;;8.54;100.00
4346;BME280;2186;49.866;7.986;2022-11-15T03:05:15;99786.91;;;8.75;100.00
4346;BME280;2186;49.866;7.986;2022-11-15T03:10:48;99782.28;;;8.20;100.00
4346;BME280;2186;49.866;7.986;2022-11-15T03:13:36;99782.22;;;8.23;100.00
4346;BME280;2186;49.866;7.986;2022-11-15T03:16:16;99780.78;;;8.11;100.00
4346;BME280;2186;49.866;7.986;2022-11-15T03:18:49;99779.44;;;7.95;100.00
4346;BME280;2186;49.866;7.986;2022-11-15T03:21:19;99773.25;;;7.94;100.00
4346;BME280;2186;49.866;7.986;2022-11-15T03:23:48;99777.22;;;7.78;100.00
4346;BME280;2186;49.866;7.986;2022-11-15T03:26:19;99774.25;;;7.90;100.00
4346;BME280;2186;49.866;7.986;2022-11-15T03:28:53;99773.69;;;7.78;100.00
4346;BME280;2186;49.866;7.986;2022-11-15T03:31:22;99780.31;;;7.94;100.00
4346;BME280;2186;49.866;7.986;2022-11-15T03:36:47;99780.13;;;8.01;100.00
4346;BME280;2186;49.866;7.986;2022-11-15T03:39:14;99772.28;;;7.98;100.00
4346;BME280;2186;49.866;7.986;2022-11-15T03:44:40;99783.97;;;8.24;100.00
4346;BME280;2186;49.866;7.986;2022-11-15T03:47:51;99778.66;;;8.24;100.00
4346;BME280;2186;49.866;7.986;2022-11-15T03:50:21;99779.25;;;8.33;100.00
4346;BME280;2186;49.866;7.986;2022-11-15T03:52:49;99780.22;;;8.31;100.00
4346;BME280;2186;49.866;7.986;2022-11-15T03:55:18;99777.22;;;8.45;100.00
4346;BME280;2186;49.866;7.986;2022-11-15T03:57:46;99773.94;;;8.37;100.00
4346;BME280;2186;49.866;7.986;2022-11-15T04:00:13;99778.69;;;8.55;100.00
4346;BME280;2186;49.866;7.986;2022-11-15T04:02:40;99783.66;;;8.67;100.00
4346;BME280;2186;49.866;7.986;2022-11-15T04:05:07;99785.38;;;8.68;100.00
4346;BME280;2186;49.866;7.986;2022-11-15T04:07:33;99791.53;;;8.69;100.00
4346;BME280;2186;49.866;7.986;2022-11-15T04:10:00;99776.06;;;8.84;100.00
4346;BME280;2186;49.866;7.986;2022-11-15T04:12:31;99776.72;;;8.93;100.00
4346;BME280;2186;49.866;7.986;2022-11-15T04:17:39;99785.16;;;9.05;100.00
4346;BME280;2186;49.866;7.986;2022-11-15T04:22:57;99778.44;;;8.94;100.00
4346;BME280;2186;49.866;7.986;2022-11-15T04:25:43;99783.03;;;9.16;100.00
4346;BME280;2186;49.866;7.986;2022-11-15T04:28:10;99780.16;;;9.24;100.00
4346;BME280;2186;49.866;7.986;2022-11-15T04:30:37;99779.28;;;9.24;100.00
4346;BME280;2186;49.866;7.986;2022-11-15T04:33:04;99762.69;;;9.17;100.00
4346;BME280;2186;49.866;7.986;2022-11-15T04:35:30;99760.28;;;9.09;100.00
4346;BME280;2186;49.866;7.986;2022-11-15T04:37:57;99753.16;;;9.11;100.00
4346;BME280;2186;49.866;7.986;2022-11-15T04:40:24;99755.94;;;9.07;100.00
4346;BME280;2186;49.866;7.986;2022-11-15T04:42:50;99749.84;;;9.03;100.00
4346;BME280;2186;49.866;7.986;2022-11-15T04:45:17;99740.28;;;8.99;100.00
4346;BME280;2186;49.866;7.986;2022-11-15T04:47:44;99742.16;;;8.96;100.00
4346;BME280;2186;49.866;7.986;2022-11-15T04:50:12;99739.22;;;9.05;100.00
4346;BME280;2186;49.866;7.986;2022-11-15T04:52:41;99731.19;;;9.08;100.00
4346;BME280;2186;49.866;7.986;2022-11-15T04:55:11;99725.97;;;9.05;100.00
4346;BME280;2186;49.866;7.986;2022-11-15T04:57:37;99723.34;;;9.03;100.00
4346;BME280;2186;49.866;7.986;2022-11-15T05:00:06;99727.06;;;8.98;100.00
4346;BME280;2186;49.866;7.986;2022-11-15T05:02:32;99725.22;;;9.00;100.00
4346;BME280;2186;49.866;7.986;2022-11-15T05:05:18;99730.25;;;9.37;100.00
4346;BME280;2186;49.866;7.986;2022-11-15T05:07:45;99728.75;;;9.55;100.00
4346;BME280;2186;49.866;7.986;2022-11-15T05:10:11;99720.72;;;9.30;100.00
4346;BME280;2186;49.866;7.986;2022-11-15T05:12:37;99722.75;;;9.49;100.00
4346;BME280;2186;49.866;7.986;2022-11-15T05:15:04;99731.22;;;9.06;100.00
4346;BME280;2186;49.866;7.986;2022-11-15T05:17:31;99729.44;;;9.07;100.00
4346;BME280;2186;49.866;7.986;2022-11-15T05:19:57;99731.28;;;9.05;100.00
4346;BME280;2186;49.866;7.986;2022-11-15T05:22:24;99730.63;;;8.97;100.00
4346;BME280;2186;49.866;7.986;2022-11-15T05:24:50;99743.13;;;8.93;100.00
4346;BME280;2186;49.866;7.986;2022-11-15T05:27:16;99747.06;;;8.80;100.00
4346;BME280;2186;49.866;7.986;2022-11-15T05:29:43;99753.69;;;8.95;100.00
4346;BME280;2186;49.866;7.986;2022-11-15T05:32:10;99751.59;;;9.04;100.00
4346;BME280;2186;49.866;7.986;2022-11-15T05:34:38;99744.13;;;8.89;100.00
4346;BME280;2186;49.866;7.986;2022-11-15T05:37:04;99747.97;;;8.79;100.00
4346;BME280;2186;49.866;7.986;2022-11-15T05:39:31;99746.97;;;8.83;100.00
4346;BME280;2186;49.866;7.986;2022-11-15T05:42:04;99749.97;;;9.00;100.00
4346;BME280;2186;49.866;7.986;2022-11-15T05:44:32;99746.50;;;8.98;100.00
4346;BME280;2186;49.866;7.986;2022-11-15T05:47:00;99741.50;;;8.87;100.00
4346;BME280;2186;49.866;7.986;2022-11-15T05:49:31;99740.03;;;8.79;100.00
4346;BME280;2186;49.866;7.986;2022-11-15T05:51:58;99740.28;;;8.70;100.00
4346;BME280;2186;49.866;7.986;2022-11-15T05:54:25;99747.19;;;8.75;100.00
4346;BME280;2186;49.866;7.986;2022-11-15T05:56:51;99747.19;;;8.75;100.00
4346;BME280;2186;49.866;7.986;2022-11-15T05:59:18;99740.50;;;8.64;100.00
4346;BME280;2186;49.866;7.986;2022-11-15T06:01:45;99747.38;;;8.69;100.00
4346;BME280;2186;49.866;7.986;2022-11-15T06:04:12;99742.44;;;8.57;100.00
4346;BME280;2186;49.866;7.986;2022-11-15T06:06:38;99727.91;;;8.41;100.00
4346;BME280;2186;49.866;7.986;2022-11-15T06:09:05;99721.19;;;8.27;100.00
4346;BME280;2186;49.866;7.986;2022-11-15T06:11:31;99735.19;;;8.64;100.00
4346;BME280;2186;49.866;7.986;2022-11-15T06:13:57;99728.81;;;8.40;100.00
4346;BME280;2186;49.866;7.986;2022-11-15T06:16:24;99728.53;;;8.50;100.00
4346;BME280;2186;49.866;7.986;2022-11-15T06:18:50;99737.28;;;8.52;100.00
4346;BME280;2186;49.866;7.986;2022-11-15T06:21:16;99731.13;;;8.52;100.00
4346;BME280;2186;49.866;7.986;2022-11-15T06:23:43;99748.75;;;8.53;100.00
4346;BME280;2186;49.866;7.986;2022-11-15T06:26:09;99753.22;;;8.49;100.00
4346;BME280;2186;49.866;7.986;2022-11-15T06:28:35;99740.97;;;8.47;100.00
4346;BME280;2186;49.866;7.986;2022-11-15T06:31:04;99742.63;;;8.49;100.00
4346;BME280;2186;49.866;7.986;2022-11-15T06:33:30;99741.75;;;8.18;100.00
4346;BME280;2186;49.866;7.986;2022-11-15T06:36:09;99750.22;;;8.30;100.00
4346;BME280;2186;49.866;7.986;2022-11-15T06:38:46;99754.53;;;8.35;100.00
4346;BME280;2186;49.866;7.986;2022-11-15T06:41:13;99748.16;;;8.73;100.00
4346;BME280;2186;49.866;7.986;2022-11-15T06:43:41;99751.47;;;9.09;100.00
4346;BME280;2186;49.866;7.986;2022-11-15T06:46:07;99746.28;;;9.06;100.00
4346;BME280;2186;49.866;7.986;2022-11-15T06:48:35;99747.47;;;8.96;100.00
4346;BME280;2186;49.866;7.986;2022-11-15T06:51:03;99745.91;;;8.88;100.00
4346;BME280;2186;49.866;7.986;2022-11-15T06:53:30;99755.78;;;8.83;100.00
4346;BME280;2186;49.866;7.986;2022-11-15T06:56:01;99756.50;;;8.88;100.00
4346;BME280;2186;49.866;7.986;2022-11-15T06:58:28;99750.38;;;8.86;100.00
4346;BME280;2186;49.866;7.986;2022-11-15T07:01:08;99747.72;;;8.86;100.00
4346;BME280;2186;49.866;7.986;2022-11-15T07:03:37;99750.16;;;8.94;100.00
4346;BME280;2186;49.866;7.986;2022-11-15T07:06:04;99746.00;;;8.85;100.00
4346;BME280;2186;49.866;7.986;2022-11-15T07:08:33;99747.69;;;8.88;100.00
4346;BME280;2186;49.866;7.986;2022-11-15T07:11:06;99749.50;;;8.86;100.00
4346;BME280;2186;49.866;7.986;2022-11-15T07:13:34;99747.13;;;8.78;100.00
4346;BME280;2186;49.866;7.986;2022-11-15T07:16:07;99739.94;;;8.82;100.00
4346;BME280;2186;49.866;7.986;2022-11-15T07:18:35;99743.28;;;8.87;100.00
4346;BME280;2186;49.866;7.986;2022-11-15T07:21:03;99738.09;;;8.84;100.00
4346;BME280;2186;49.866;7.986;2022-11-15T07:23:31;99747.72;;;8.86;100.00
4346;BME280;2186;49.866;7.986;2022-11-15T07:25:58;99744.06;;;8.90;100.00
4346;BME280;2186;49.866;7.986;2022-11-15T07:28:25;99750.31;;;8.88;100.00
4346;BME280;2186;49.866;7.986;2022-11-15T07:30:52;99744.84;;;8.94;100.00
4346;BME280;2186;49.866;7.986;2022-11-15T07:33:19;99748.28;;;8.98;100.00
4346;BME280;2186;49.866;7.986;2022-11-15T07:35:45;99750.78;;;9.02;100.00
4346;BME280;2186;49.866;7.986;2022-11-15T07:38:15;99764.56;;;9.13;100.00
4346;BME280;2186;49.866;7.986;2022-11-15T07:40:41;99753.84;;;9.16;100.00
4346;BME280;2186;49.866;7.986;2022-11-15T07:43:08;99756.50;;;9.16;100.00
4346;BME280;2186;49.866;7.986;2022-11-15T07:45:43;99748.31;;;9.24;100.00
4346;BME280;2186;49.866;7.986;2022-11-15T07:48:11;99761.44;;;9.29;100.00
4346;BME280;2186;49.866;7.986;2022-11-15T07:50:40;99751.63;;;9.31;100.00
4346;BME280;2186;49.866;7.986;2022-11-15T07:53:08;99753.53;;;9.27;100.00
4346;BME280;2186;49.866;7.986;2022-11-15T07:55:35;99745.63;;;9.26;100.00
4346;BME280;2186;49.866;7.986;2022-11-15T07:58:03;99749.78;;;9.34;100.00
4346;BME280;2186;49.866;7.986;2022-11-15T08:00:30;99749.78;;;9.34;100.00
4346;BME280;2186;49.866;7.986;2022-11-15T08:03:08;99752.44;;;9.34;100.00
4346;BME280;2186;49.866;7.986;2022-11-15T08:05:36;99760.22;;;9.39;100.00
4346;BME280;2186;49.866;7.986;2022-11-15T08:08:03;99755.50;;;9.48;100.00
4346;BME280;2186;49.866;7.986;2022-11-15T08:10:29;99757.22;;;9.49;100.00
4346;BME280;2186;49.866;7.986;2022-11-15T08:13:08;99758.22;;;9.45;100.00
4346;BME280;2186;49.866;7.986;2022-11-15T08:15:35;99752.09;;;9.43;100.00
4346;BME280;2186;49.866;7.986;2022-11-15T08:18:04;99751.94;;;9.49;100.00
4346;BME280;2186;49.866;7.986;2022-11-15T08:20:31;99737.91;;;9.46;100.00
4346;BME280;2186;49.866;7.986;2022-11-15T08:22:59;99746.47;;;9.54;100.00
4346;BME280;2186;49.866;7.986;2022-11-15T08:25:28;99741.97;;;9.56;100.00
4346;BME280;2186;49.866;7.986;2022-11-15T08:27:57;99739.94;;;9.64;100.00
4346;BME280;2186;49.866;7.986;2022-11-15T08:30:24;99745.88;;;9.71;100.00
4346;BME280;2186;49.866;7.986;2022-11-15T08:32:51;99739.66;;;9.72;100.00
4346;BME280;2186;49.866;7.986;2022-11-15T08:35:19;99737.63;;;9.80;100.00
4346;BME280;2186;49.866;7.986;2022-11-15T08:37:53;99733.75;;;9.90;100.00
4346;BME280;2186;49.866;7.986;2022-11-15T08:40:20;99734.75;;;9.86;100.00
4346;BME280;2186;49.866;7.986;2022-11-15T08:42:47;99740.41;;;10.02;100.00
4346;BME280;2186;49.866;7.986;2022-11-15T08:45:13;99736.88;;;10.01;100.00
4346;BME280;2186;49.866;7.986;2022-11-15T08:47:40;99731.34;;;10.07;100.00
4346;BME280;2186;49.866;7.986;2022-11-15T08:50:07;99734.19;;;10.03;100.00
4346;BME280;2186;49.866;7.986;2022-11-15T08:52:33;99737.16;;;10.19;100.00
4346;BME280;2186;49.866;7.986;2022-11-15T08:55:00;99731.97;;;10.14;100.00
4346;BME280;2186;49.866;7.986;2022-11-15T08:57:28;99735.59;;;10.38;100.00
4346;BME280;2186;49.866;7.986;2022-11-15T08:59:56;99737.22;;;10.65;100.00
4346;BME280;2186;49.866;7.986;2022-11-15T09:02:23;99727.47;;;10.43;100.00
4346;BME280;2186;49.866;7.986;2022-11-15T09:04:49;99737.16;;;10.44;100.00
4346;BME280;2186;49.866;7.986;2022-11-15T09:07:16;99727.41;;;10.44;100.00
4346;BME280;2186;49.866;7.986;2022-11-15T09:09:43;99719.38;;;10.46;100.00
4346;BME280;2186;49.866;7.986;2022-11-15T09:12:09;99727.88;;;10.55;100.00
4346;BME280;2186;49.866;7.986;2022-11-15T09:14:36;99715.47;;;10.54;100.00
4346;BME280;2186;49.866;7.986;2022-11-15T09:17:02;99710.00;;;10.59;100.00
4346;BME280;2186;49.866;7.986;2022-11-15T09:19:29;99712.88;;;10.76;100.00
4346;BME280;2186;49.866;7.986;2022-11-15T09:21:55;99706.63;;;10.77;100.00
4346;BME280;2186;49.866;7.986;2022-11-15T09:24:22;99712.28;;;10.91;100.00
4346;BME280;2186;49.866;7.986;2022-11-15T09:26:50;99711.84;;;10.80;100.00
4346;BME280;2186;49.866;7.986;2022-11-15T09:29:17;99709.97;;;10.82;100.00
4346;BME280;2186;49.866;7.986;2022-11-15T09:31:44;99708.03;;;10.87;100.00
4346;BME280;2186;49.866;7.986;2022-11-15T09:34:11;99706.41;;;10.83;100.00
4346;BME280;2186;49.866;7.986;2022-11-15T09:36:37;99708.94;;;10.86;100.00
4346;BME280;2186;49.866;7.986;2022-11-15T09:39:04;99701.09;;;10.83;100.00
4346;BME280;2186;49.866;7.986;2022-11-15T09:47:05;99707.53;;;11.00;100.00
4346;BME280;2186;49.866;7.986;2022-11-15T09:49:35;99706.69;;;10.99;100.00
4346;BME280;2186;49.866;7.986;2022-11-15T09:52:02;99713.25;;;11.12;100.00
4346;BME280;2186;49.866;7.986;2022-11-15T09:54:35;99714.28;;;11.08;100.00
4346;BME280;2186;49.866;7.986;2022-11-15T09:57:33;99711.59;;;11.08;100.00
4346;BME280;2186;49.866;7.986;2022-11-15T10:00:22;99712.47;;;11.09;100.00
4346;BME280;2186;49.866;7.986;2022-11-15T10:05:49;99705.31;;;11.11;100.00
4346;BME280;2186;49.866;7.986;2022-11-15T10:10:48;99710.66;;;11.11;100.00
4346;BME280;2186;49.866;7.986;2022-11-15T10:13:39;99711.59;;;11.08;100.00
4346;BME280;2186;49.866;7.986;2022-11-15T10:19:13;99687.91;;;11.46;100.00
4346;BME280;2186;49.866;7.986;2022-11-15T10:24:45;99679.03;;;11.25;100.00
4346;BME280;2186;49.866;7.986;2022-11-15T10:27:17;99673.44;;;11.31;100.00
4346;BME280;2186;49.866;7.986;2022-11-15T10:32:12;99669.06;;;11.30;100.00
4346;BME280;2186;49.866;7.986;2022-11-15T10:34:40;99667.75;;;11.40;100.00
4346;BME280;2186;49.866;7.986;2022-11-15T10:37:06;99659.50;;;11.46;100.00
4346;BME280;2186;49.866;7.986;2022-11-15T10:39:34;99646.19;;;11.46;100.00
4346;BME280;2186;49.866;7.986;2022-11-15T10:42:24;99650.41;;;11.52;100.00
4346;BME280;2186;49.866;7.986;2022-11-15T10:44:51;99640.19;;;11.62;100.00
4346;BME280;2186;49.866;7.986;2022-11-15T10:47:31;99621.25;;;11.69;100.00
4346;BME280;2186;49.866;7.986;2022-11-15T10:50:26;99620.97;;;11.75;100.00
4346;BME280;2186;49.866;7.986;2022-11-15T10:52:53;99601.09;;;11.84;100.00
4346;BME280;2186;49.866;7.986;2022-11-15T10:55:24;99604.25;;;11.92;100.00
4346;BME280;2186;49.866;7.986;2022-11-15T10:57:54;99590.31;;;12.06;100.00
4346;BME280;2186;49.866;7.986;2022-11-15T11:00:29;99586.91;;;12.23;100.00
4346;BME280;2186;49.866;7.986;2022-11-15T11:05:31;99579.16;;;12.54;100.00
4346;BME280;2186;49.866;7.986;2022-11-15T11:08:22;99577.13;;;12.78;100.00
4346;BME280;2186;49.866;7.986;2022-11-15T11:10:55;99574.84;;;12.88;100.00
4346;BME280;2186;49.866;7.986;2022-11-15T11:13:31;99573.28;;;13.01;100.00
4346;BME280;2186;49.866;7.986;2022-11-15T11:37:57;99560.00;;;13.36;100.00
4346;BME280;2186;49.866;7.986;2022-11-15T11:40:33;99553.31;;;13.27;100.00
4346;BME280;2186;49.866;7.986;2022-11-15T11:43:10;99546.28;;;13.43;100.00
4346;BME280;2186;49.866;7.986;2022-11-15T11:48:39;99543.66;;;13.42;100.00
4346;BME280;2186;49.866;7.986;2022-11-15T11:51:18;99542.97;;;13.21;100.00
4346;BME280;2186;49.866;7.986;2022-11-15T11:53:57;99540.28;;;13.38;100.00
4346;BME280;2186;49.866;7.986;2022-11-15T11:56:28;99538.34;;;13.24;100.00
4346;BME280;2186;49.866;7.986;2022-11-15T11:59:00;99534.03;;;13.22;100.00
4346;BME280;2186;49.866;7.986;2022-11-15T12:01:36;99523.44;;;13.20;100.00
4346;BME280;2186;49.866;7.986;2022-11-15T12:06:52;99525.78;;;13.44;100.00
4346;BME280;2186;49.866;7.986;2022-11-15T12:09:27;99520.78;;;13.53;100.00
4346;BME280;2186;49.866;7.986;2022-11-15T12:12:12;99521.31;;;13.44;100.00
4346;BME280;2186;49.866;7.986;2022-11-15T12:14:46;99516.28;;;13.38;100.00
4346;BME280;2186;49.866;7.986;2022-11-15T12:17:15;99518.16;;;13.36;100.00
4346;BME280;2186;49.866;7.986;2022-11-15T12:19:42;99513.34;;;13.60;100.00
4346;BME280;2186;49.866;7.986;2022-11-15T12:22:21;99513.19;;;13.79;100.00
4346;BME280;2186;49.866;7.986;2022-11-15T12:25:01;99501.59;;;13.47;100.00
4346;BME280;2186;49.866;7.986;2022-11-15T12:27:38;99496.28;;;13.29;100.00
4346;BME280;2186;49.866;7.986;2022-11-15T12:30:17;99495.94;;;13.36;100.00
4346;BME280;2186;49.866;7.986;2022-11-15T12:32:54;99481.47;;;13.40;100.00
4346;BME280;2186;49.866;7.986;2022-11-15T12:35:40;99475.06;;;13.26;100.00
4346;BME280;2186;49.866;7.986;2022-11-15T12:41:16;99465.81;;;13.33;100.00
4346;BME280;2186;49.866;7.986;2022-11-15T12:43:45;99471.31;;;13.30;100.00
4346;BME280;2186;49.866;7.986;2022-11-15T12:49:10;99455.75;;;13.54;100.00
4346;BME280;2186;49.866;7.986;2022-11-15T13:02:46;99424.28;;;13.77;100.00
4346;BME280;2186;49.866;7.986;2022-11-15T13:20:49;99404.78;;;13.43;100.00
4346;BME280;2186;49.866;7.986;2022-11-15T13:23:16;99400.03;;;13.32;100.00
4346;BME280;2186;49.866;7.986;2022-11-15T13:33:21;99394.22;;;13.24;100.00
4346;BME280;2186;49.866;7.986;2022-11-15T13:35:54;99395.00;;;13.26;100.00
4346;BME280;2186;49.866;7.986;2022-11-15T13:40:56;99387.63;;;13.31;100.00
4346;BME280;2186;49.866;7.986;2022-11-15T13:48:37;99371.75;;;13.28;100.00
4346;BME280;2186;49.866;7.986;2022-11-15T13:51:13;99365.91;;;13.22;100.00
4346;BME280;2186;49.866;7.986;2022-11-15T13:53:46;99356.88;;;13.40;100.00
4346;BME280;2186;49.866;7.986;2022-11-15T13:56:16;99358.19;;;13.33;100.00
4346;BME280;2186;49.866;7.986;2022-11-15T13:58:45;99351.25;;;13.29;100.00
4346;BME280;2186;49.866;7.986;2022-11-15T14:01:17;99350.25;;;13.31;100.00
4346;BME280;2186;49.866;7.986;2022-11-15T14:03:57;99345.88;;;13.30;100.00
4346;BME280;2186;49.866;7.986;2022-11-15T14:06:25;99341.47;;;13.12;100.00
4346;BME280;2186;49.866;7.986;2022-11-15T14:11:48;99342.94;;;13.02;100.00
4346;BME280;2186;49.866;7.986;2022-11-15T14:14:15;99349.31;;;13.15;100.00
4346;BME280;2186;49.866;7.986;2022-11-15T14:16:44;99332.06;;;13.22;100.00
4346;BME280;2186;49.866;7.986;2022-11-15T14:19:32;99327.41;;;13.42;100.00
4346;BME280;2186;49.866;7.986;2022-11-15T14:22:16;99331.31;;;13.36;100.00
4346;BME280;2186;49.866;7.986;2022-11-15T14:24:46;99315.88;;;13.25;100.00
4346;BME280;2186;49.866;7.986;2022-11-15T14:27:26;99306.78;;;13.12;100.00
4346;BME280;2186;49.866;7.986;2022-11-15T14:29:54;99300.09;;;13.05;100.00
4346;BME280;2186;49.866;7.986;2022-11-15T14:32:23;99303.44;;;13.09;100.00
4346;BME280;2186;49.866;7.986;2022-11-15T14:34:58;99283.16;;;13.22;100.00
4346;BME280;2186;49.866;7.986;2022-11-15T14:37:29;99289.03;;;13.44;100.00
4346;BME280;2186;49.866;7.986;2022-11-15T14:40:02;99284.13;;;13.37;100.00
4346;BME280;2186;49.866;7.986;2022-11-15T14:42:29;99274.03;;;13.42;100.00
4346;BME280;2186;49.866;7.986;2022-11-15T14:44:56;99274.84;;;13.44;100.00
4346;BME280;2186;49.866;7.986;2022-11-15T14:47:22;99268.53;;;13.29;100.00
4346;BME280;2186;49.866;7.986;2022-11-15T14:49:51;99256.00;;;13.14;100.00
4346;BME280;2186;49.866;7.986;2022-11-15T14:52:31;99265.63;;;13.33;100.00
4346;BME280;2186;49.866;7.986;2022-11-15T14:55:04;99259.50;;;13.31;100.00
4346;BME280;2186;49.866;7.986;2022-11-15T14:57:36;99271.38;;;13.26;100.00
4346;BME280;2186;49.866;7.986;2022-11-15T15:00:03;99273.22;;;13.08;100.00
4346;BME280;2186;49.866;7.986;2022-11-15T15:02:30;99262.69;;;13.22;100.00
4346;BME280;2186;49.866;7.986;2022-11-15T15:04:57;99268.56;;;13.12;100.00
4346;BME280;2186;49.866;7.986;2022-11-15T15:07:27;99255.91;;;12.99;100.00
4346;BME280;2186;49.866;7.986;2022-11-15T15:09:53;99253.50;;;13.11;100.00
4346;BME280;2186;49.866;7.986;2022-11-15T15:12:40;99253.25;;;12.99;100.00
4346;BME280;2186;49.866;7.986;2022-11-15T15:15:13;99245.34;;;13.14;100.00
4346;BME280;2186;49.866;7.986;2022-11-15T15:17:40;99243.03;;;13.08;100.00
4346;BME280;2186;49.866;7.986;2022-11-15T15:20:07;99236.16;;;13.03;100.00
4346;BME280;2186;49.866;7.986;2022-11-15T15:22:34;99235.34;;;13.01;100.00
4346;BME280;2186;49.866;7.986;2022-11-15T15:25:01;99241.97;;;13.10;100.00
4346;BME280;2186;49.866;7.986;2022-11-15T15:27:27;99225.97;;;13.10;100.00
4346;BME280;2186;49.866;7.986;2022-11-15T15:29:53;99232.84;;;13.14;100.00
4346;BME280;2186;49.866;7.986;2022-11-15T15:32:20;99231.09;;;13.30;100.00
4346;BME280;2186;49.866;7.986;2022-11-15T15:34:47;99227.91;;;13.24;100.00
4346;BME280;2186;49.866;7.986;2022-11-15T15:37:24;99212.91;;;13.05;100.00
4346;BME280;2186;49.866;7.986;2022-11-15T15:39:52;99211.69;;;13.11;100.00
4346;BME280;2186;49.866;7.986;2022-11-15T15:42:20;99214.81;;;13.19;100.00
4346;BME280;2186;49.866;7.986;2022-11-15T15:44:47;99220.22;;;13.18;100.00